Time,TemperatureF,DewpointF,PressureIn,WindDirection,WindDirectionDegrees,WindSpeedMPH,WindSpeedGustMPH,Humidity,HourlyPrecipIn,Conditions,Clouds,dailyrainin,SolarRadiationWatts/m^2,SoftwareType,DateUTC
2013-08-19 00:01:00,71.4,61.5,30.05,South,184,1.9,6.0,71,0.00,OVC,,0.00,0.0,WeatherDisplay:10.37,2013-08-19 05:01:00,
2013-08-19 00:06:00,71.4,61.5,30.05,South,184,3.4,9.2,71,0.00,OVC,,0.00,0.0,WeatherDisplay:10.37,2013-08-19 05:06:00,
2013-08-19 00:11:00,71.4,61.5,30.05,South,179,3.4,6.0,71,0.00,OVC,,0.00,0.0,WeatherDisplay:10.37,2013-08-19 05:11:00,
2013-08-19 00:16:00,71.3,61.0,30.05,South,179,3.7,6.9,70,0.00,OVC,,0.00,0.0,WeatherDisplay:10.37,2013-08-19 05:16:00,
2013-08-19 00:21:00,71.3,61.4,30.04,SSW,192,3.0,6.9,71,0.00,OVC,,0.00,0.0,WeatherDisplay:10.37,2013-08-19 05:21:00,
2013-08-19 00:26:00,71.3,61.0,30.04,South,182,4.2,7.0,70,0.00,OVC,,0.00,0.0,WeatherDisplay:10.37,2013-08-19 05:26:00,
2013-08-19 00:31:00,71.3,61.4,30.05,SSW,213,3.5,8.1,71,0.00,OVC,,0.00,0.0,WeatherDisplay:10.37,2013-08-19 05:31:00,
2013-08-19 00:36:00,71.3,61.4,30.05,SW,229,4.3,7.0,71,0.00,OVC,,0.00,0.0,WeatherDisplay:10.37,2013-08-19 05:36:00,
2013-08-19 00:41:00,71.2,61.3,30.05,SSW,194,4.9,6.0,71,0.00,OVC,,0.00,0.0,WeatherDisplay:10.37,2013-08-19 05:41:00,
2013-08-19 00:46:00,71.1,61.2,30.05,South,175,3.5,7.0,71,0.00,OVC,,0.00,0.0,WeatherDisplay:10.37,2013-08-19 05:46:00,
2013-08-19 00:51:00,71.1,61.2,30.05,NW,306,4.4,7.0,71,0.00,OVC,,0.00,0.0,WeatherDisplay:10.37,2013-08-19 05:51:00,
2013-08-19 00:56:00,71.0,61.5,30.04,South,175,5.4,9.2,72,0.00,OVC,,0.00,0.0,WeatherDisplay:10.37,2013-08-19 05:56:00,
2013-08-19 01:01:00,70.9,61.4,30.04,South,188,2.6,6.0,72,0.00,OVC,,0.00,0.0,WeatherDisplay:10.37,2013-08-19 06:01:00,
2013-08-19 01:06:00,70.9,61.4,30.04,SSW,204,5.7,10.4,72,0.00,OVC,,0.00,0.0,WeatherDisplay:10.37,2013-08-19 06:06:00,
2013-08-19 01:11:00,70.8,61.7,30.03,SW,216,3.6,8.1,73,0.00,OVC,,0.00,0.0,WeatherDisplay:10.37,2013-08-19 06:11:00,
2013-08-19 01:16:00,70.7,61.6,30.03,SSW,201,5.7,10.0,73,0.00,OVC,,0.00,0.0,WeatherDisplay:10.37,2013-08-19 06:16:00,
2013-08-19 01:21:00,70.7,61.6,30.03,SSE,157,5.5,10.0,73,0.00,OVC,,0.00,0.0,WeatherDisplay:10.37,2013-08-19 06:21:00,
2013-08-19 01:26:00,70.7,61.6,30.03,SW,235,5.0,7.0,73,0.00,OVC,,0.00,0.0,WeatherDisplay:10.37,2013-08-19 06:26:00,
2013-08-19 01:31:00,70.7,61.6,30.03,SSW,200,4.6,9.2,73,0.00,OVC,,0.00,0.0,WeatherDisplay:10.37,2013-08-19 06:31:00,
2013-08-19 01:36:00,70.7,61.6,30.03,SSW,201,5.0,13.8,73,0.00,OVC,,0.00,0.0,WeatherDisplay:10.37,2013-08-19 06:36:00,
2013-08-19 01:41:00,70.6,61.5,30.03,SW,215,4.9,9.0,73,0.00,OVC,,0.00,0.0,WeatherDisplay:10.37,2013-08-19 06:41:00,
2013-08-19 01:46:00,70.5,61.8,30.02,South,173,5.3,9.0,74,0.00,OVC,,0.00,0.0,WeatherDisplay:10.37,2013-08-19 06:46:00,
2013-08-19 01:51:00,70.4,61.7,30.02,SSW,198,5.1,8.1,74,0.00,OVC,,0.00,0.0,WeatherDisplay:10.37,2013-08-19 06:51:00,
2013-08-19 01:56:00,70.4,61.7,30.02,West,263,5.2,11.5,74,0.00,OVC,,0.00,0.0,WeatherDisplay:10.37,2013-08-19 06:56:00,
2013-08-19 02:01:00,70.4,61.7,30.02,SW,222,4.4,8.1,74,0.00,OVC,,0.00,0.0,WeatherDisplay:10.37,2013-08-19 07:01:00,
2013-08-19 02:06:00,70.4,61.7,30.02,South,170,5.3,10.4,74,0.00,BKN,,0.00,0.0,WeatherDisplay:10.37,2013-08-19 07:06:00,
2013-08-19 02:11:00,70.4,61.7,30.03,SSW,209,3.0,8.1,74,0.00,BKN,,0.00,0.0,WeatherDisplay:10.37,2013-08-19 07:11:00,
2013-08-19 02:16:00,70.3,61.6,30.03,SSE,155,5.1,11.5,74,0.00,BKN,,0.00,0.0,WeatherDisplay:10.37,2013-08-19 07:16:00,
2013-08-19 02:21:00,70.4,61.7,30.03,South,186,4.6,9.2,74,0.00,BKN,,0.00,0.0,WeatherDisplay:10.37,2013-08-19 07:21:00,
2013-08-19 02:26:00,70.4,61.7,30.02,SSE,148,3.7,6.0,74,0.00,BKN,,0.00,0.0,WeatherDisplay:10.37,2013-08-19 07:26:00,
2013-08-19 02:31:00,70.5,61.8,30.02,SSE,152,5.2,13.0,74,0.00,BKN,,0.00,0.0,WeatherDisplay:10.37,2013-08-19 07:31:00,
2013-08-19 02:36:00,70.6,61.9,30.02,South,191,6.6,10.0,74,0.00,BKN,,0.00,0.0,WeatherDisplay:10.37,2013-08-19 07:36:00,
2013-08-19 02:41:00,70.6,61.9,30.02,ENE,72,7.3,15.0,74,0.00,BKN,,0.00,0.0,WeatherDisplay:10.37,2013-08-19 07:41:00,
2013-08-19 02:46:00,70.6,61.9,30.01,WSW,244,5.4,8.1,74,0.00,BKN,,0.00,0.0,WeatherDisplay:10.37,2013-08-19 07:46:00,
2013-08-19 02:51:00,70.6,61.9,30.01,West,265,4.1,8.1,74,0.00,BKN,,0.00,0.0,WeatherDisplay:10.37,2013-08-19 07:51:00,
2013-08-19 02:56:00,70.6,61.9,30.01,South,182,6.8,15.0,74,0.00,BKN,,0.00,0.0,WeatherDisplay:10.37,2013-08-19 07:56:00,
2013-08-19 03:01:00,70.5,61.8,30.02,South,169,4.9,9.2,74,0.00,BKN,,0.00,0.0,WeatherDisplay:10.37,2013-08-19 08:01:00,
2013-08-19 03:06:00,70.4,61.7,30.02,South,180,3.3,4.0,74,0.00,BKN,,0.00,0.0,WeatherDisplay:10.37,2013-08-19 08:06:00,
2013-08-19 03:11:00,70.2,61.9,30.02,SSW,196,2.8,4.6,75,0.00,BKN,,0.00,0.0,WeatherDisplay:10.37,2013-08-19 08:11:00,
2013-08-19 03:16:00,70.1,61.8,30.02,South,182,4.9,8.1,75,0.00,BKN,,0.00,0.0,WeatherDisplay:10.37,2013-08-19 08:16:00,
2013-08-19 03:21:00,69.9,62.0,30.02,SSE,165,3.4,6.0,76,0.00,BKN,,0.00,0.0,WeatherDisplay:10.37,2013-08-19 08:21:00,
2013-08-19 03:26:00,69.8,61.9,30.01,SSE,157,4.4,7.0,76,0.00,BKN,,0.00,0.0,WeatherDisplay:10.37,2013-08-19 08:26:00,
2013-08-19 03:31:00,69.7,62.2,30.02,South,170,3.9,6.9,77,0.00,BKN,,0.00,0.0,WeatherDisplay:10.37,2013-08-19 08:31:00,
2013-08-19 03:36:00,69.5,62.3,30.01,South,178,3.6,8.1,78,0.00,BKN,,0.00,0.0,WeatherDisplay:10.37,2013-08-19 08:36:00,
2013-08-19 03:41:00,69.5,62.3,30.01,SSW,205,3.5,7.0,78,0.00,BKN,,0.00,0.0,WeatherDisplay:10.37,2013-08-19 08:41:00,
2013-08-19 03:46:00,69.5,62.3,30.02,South,179,2.1,4.0,78,0.00,BKN,,0.00,0.0,WeatherDisplay:10.37,2013-08-19 08:46:00,
2013-08-19 03:51:00,69.3,62.1,30.01,SW,215,4.0,6.0,78,0.00,BKN,,0.00,0.0,WeatherDisplay:10.37,2013-08-19 08:51:00,
2013-08-19 03:56:00,69.3,62.1,30.01,SSW,196,4.2,7.0,78,0.00,BKN,,0.00,0.0,WeatherDisplay:10.37,2013-08-19 08:56:00,
2013-08-19 04:01:00,69.2,62.0,30.01,SSE,157,5.0,11.0,78,0.00,BKN,,0.00,0.0,WeatherDisplay:10.37,2013-08-19 09:01:00,
2013-08-19 04:06:00,69.2,62.0,30.01,SSE,166,3.4,6.0,78,0.00,FEW,,0.00,0.0,WeatherDisplay:10.37,2013-08-19 09:06:00,
2013-08-19 04:11:00,69.1,61.9,30.00,SE,143,4.0,6.9,78,0.00,FEW,,0.00,0.0,WeatherDisplay:10.37,2013-08-19 09:11:00,
2013-08-19 04:16:00,69.1,62.3,30.00,South,183,5.5,10.0,79,0.00,FEW,,0.00,0.0,WeatherDisplay:10.37,2013-08-19 09:16:00,
2013-08-19 04:21:00,69.1,62.3,30.00,SSE,163,4.5,8.1,79,0.00,FEW,,0.00,0.0,WeatherDisplay:10.37,2013-08-19 09:21:00,
2013-08-19 04:26:00,69.0,62.2,30.00,South,180,1.3,4.6,79,0.00,FEW,,0.00,0.0,WeatherDisplay:10.37,2013-08-19 09:26:00,
2013-08-19 04:31:00,69.0,62.2,30.00,South,183,2.6,5.0,79,0.00,FEW,,0.00,0.0,WeatherDisplay:10.37,2013-08-19 09:31:00,
2013-08-19 04:36:00,68.8,62.4,30.00,South,176,2.4,6.0,80,0.00,FEW,,0.00,0.0,WeatherDisplay:10.37,2013-08-19 09:36:00,
2013-08-19 04:41:00,68.7,62.3,30.00,SSW,198,1.6,4.0,80,0.00,FEW,,0.00,0.0,WeatherDisplay:10.37,2013-08-19 09:41:00,
2013-08-19 04:46:00,68.6,62.2,29.99,SSW,196,2.8,6.0,80,0.00,FEW,,0.00,0.0,WeatherDisplay:10.37,2013-08-19 09:46:00,
2013-08-19 04:51:00,68.5,62.1,29.99,South,188,2.4,5.0,80,0.00,FEW,,0.00,0.0,WeatherDisplay:10.37,2013-08-19 09:51:00,
2013-08-19 04:56:00,68.5,62.1,29.99,South,185,1.7,3.5,80,0.00,FEW,,0.00,0.0,WeatherDisplay:10.37,2013-08-19 09:56:00,
2013-08-19 05:01:00,68.4,62.0,29.99,SE,145,2.2,5.0,80,0.00,FEW,,0.00,0.0,WeatherDisplay:10.37,2013-08-19 10:01:00,
2013-08-19 05:06:00,68.5,62.1,29.99,SSW,195,2.4,5.8,80,0.00,CLR,,0.00,0.0,WeatherDisplay:10.37,2013-08-19 10:06:00,
2013-08-19 05:11:00,68.4,62.0,29.99,South,187,3.3,5.0,80,0.00,CLR,,0.00,0.0,WeatherDisplay:10.37,2013-08-19 10:11:00,
2013-08-19 05:16:00,68.3,61.9,29.99,SSE,153,3.6,7.0,80,0.00,CLR,,0.00,0.0,WeatherDisplay:10.37,2013-08-19 10:16:00,
2013-08-19 05:21:00,68.2,62.1,29.98,SSW,195,2.1,3.5,81,0.00,CLR,,0.00,0.0,WeatherDisplay:10.37,2013-08-19 10:21:00,
2013-08-19 05:26:00,68.1,62.0,29.98,SSW,195,1.6,3.5,81,0.00,CLR,,0.00,0.0,WeatherDisplay:10.37,2013-08-19 10:26:00,
2013-08-19 05:31:00,67.9,62.2,29.98,South,169,1.9,4.0,82,0.00,CLR,,0.00,0.0,WeatherDisplay:10.37,2013-08-19 10:31:00,
2013-08-19 05:36:00,67.8,62.1,29.98,SSE,166,3.3,7.0,82,0.00,CLR,,0.00,0.0,WeatherDisplay:10.37,2013-08-19 10:36:00,
2013-08-19 05:41:00,67.7,62.0,29.98,SSW,213,1.6,4.0,82,0.00,CLR,,0.00,0.0,WeatherDisplay:10.37,2013-08-19 10:41:00,
2013-08-19 05:46:00,67.6,61.9,29.98,South,173,4.0,10.0,82,0.00,CLR,,0.00,0.0,WeatherDisplay:10.37,2013-08-19 10:46:00,
2013-08-19 05:51:00,67.5,61.8,29.98,SW,221,3.2,6.0,82,0.00,CLR,,0.00,0.0,WeatherDisplay:10.37,2013-08-19 10:51:00,
2013-08-19 05:56:00,67.5,62.2,29.99,South,179,4.1,8.0,83,0.00,CLR,,0.00,0.0,WeatherDisplay:10.37,2013-08-19 10:56:00,
2013-08-19 06:01:00,67.4,61.7,29.99,South,171,4.1,6.0,82,0.00,CLR,,0.00,0.0,WeatherDisplay:10.37,2013-08-19 11:01:00,
2013-08-19 06:06:00,67.3,62.0,29.98,SSW,203,3.6,7.0,83,0.00,-RA,,0.00,0.0,WeatherDisplay:10.37,2013-08-19 11:06:00,
2013-08-19 06:11:00,67.2,61.9,29.99,SSE,149,5.2,9.0,83,0.00,-RA,,0.00,0.0,WeatherDisplay:10.37,2013-08-19 11:11:00,
2013-08-19 06:16:00,67.2,61.9,29.99,South,172,5.6,9.2,83,0.00,-RA,,0.00,0.0,WeatherDisplay:10.37,2013-08-19 11:16:00,
2013-08-19 06:21:00,67.1,61.8,29.98,South,175,4.3,8.1,83,0.00,-RA,,0.00,0.0,WeatherDisplay:10.37,2013-08-19 11:21:00,
2013-08-19 06:26:00,67.0,61.7,29.99,South,174,5.4,9.0,83,0.00,-RA,,0.00,0.0,WeatherDisplay:10.37,2013-08-19 11:26:00,
2013-08-19 06:31:00,67.0,61.7,29.99,SSW,203,3.1,5.0,83,0.00,-RA,,0.00,0.0,WeatherDisplay:10.37,2013-08-19 11:31:00,
2013-08-19 06:36:00,67.1,61.8,29.99,South,183,3.2,6.0,83,0.00,-RA,,0.00,0.0,WeatherDisplay:10.37,2013-08-19 11:36:00,
2013-08-19 06:41:00,67.1,61.8,29.99,South,171,1.7,4.0,83,0.00,-RA,,0.00,0.0,WeatherDisplay:10.37,2013-08-19 11:41:00,
2013-08-19 06:46:00,67.1,61.8,29.99,SSW,197,2.6,5.0,83,0.00,-RA,,0.00,0.0,WeatherDisplay:10.37,2013-08-19 11:46:00,
2013-08-19 06:51:00,67.0,61.7,29.99,South,181,4.0,7.0,83,0.00,-RA,,0.00,7.0,WeatherDisplay:10.37,2013-08-19 11:51:00,
2013-08-19 06:56:00,67.0,61.7,29.99,South,178,4.5,6.0,83,0.00,-RA,,0.00,9.0,WeatherDisplay:10.37,2013-08-19 11:56:00,
2013-08-19 07:01:00,67.1,61.8,29.99,South,171,4.5,8.0,83,0.00,-RA,,0.00,14.0,WeatherDisplay:10.37,2013-08-19 12:01:00,
2013-08-19 07:06:00,67.0,61.7,29.99,SSW,192,4.6,8.1,83,0.00,CLR,,0.00,16.0,WeatherDisplay:10.37,2013-08-19 12:06:00,
2013-08-19 07:11:00,67.0,61.7,29.99,South,171,5.0,9.2,83,0.00,CLR,,0.00,18.0,WeatherDisplay:10.37,2013-08-19 12:11:00,
2013-08-19 07:16:00,67.0,62.0,29.99,SSE,168,4.4,7.0,84,0.00,CLR,,0.00,21.0,WeatherDisplay:10.37,2013-08-19 12:16:00,
2013-08-19 07:21:00,67.1,62.1,29.99,SSW,196,3.7,8.1,84,0.00,CLR,,0.00,26.0,WeatherDisplay:10.37,2013-08-19 12:21:00,
2013-08-19 07:26:00,67.1,62.1,29.99,South,181,2.5,5.0,84,0.00,CLR,,0.00,35.0,WeatherDisplay:10.37,2013-08-19 12:26:00,
2013-08-19 07:31:00,67.1,62.1,29.99,SSW,207,5.2,8.0,84,0.00,CLR,,0.00,37.0,WeatherDisplay:10.37,2013-08-19 12:31:00,
2013-08-19 07:36:00,67.0,62.0,29.99,South,173,4.9,8.0,84,0.00,CLR,,0.00,37.0,WeatherDisplay:10.37,2013-08-19 12:36:00,
2013-08-19 07:41:00,67.1,62.1,29.99,SSW,193,2.5,6.0,84,0.00,CLR,,0.00,42.0,WeatherDisplay:10.37,2013-08-19 12:41:00,
2013-08-19 07:46:00,67.1,62.1,29.99,SSE,168,3.2,6.0,84,0.00,CLR,,0.00,49.0,WeatherDisplay:10.37,2013-08-19 12:46:00,
2013-08-19 07:51:00,67.1,62.1,29.99,South,184,2.3,5.0,84,0.00,CLR,,0.00,54.0,WeatherDisplay:10.37,2013-08-19 12:51:00,
2013-08-19 07:56:00,67.2,62.2,29.99,South,183,5.8,8.1,84,0.00,CLR,,0.00,63.0,WeatherDisplay:10.37,2013-08-19 12:56:00,
2013-08-19 08:01:00,67.3,62.3,29.99,SSW,207,4.8,8.1,84,0.00,CLR,,0.00,67.0,WeatherDisplay:10.37,2013-08-19 13:01:00,
2013-08-19 08:06:00,67.4,62.4,29.99,SSW,198,5.2,9.0,84,0.00,CLR,,0.00,74.0,WeatherDisplay:10.37,2013-08-19 13:06:00,
2013-08-19 08:11:00,67.5,62.5,29.99,SSE,151,4.0,6.0,84,0.00,CLR,,0.00,93.0,WeatherDisplay:10.37,2013-08-19 13:11:00,
2013-08-19 08:16:00,67.6,62.6,29.99,South,188,5.2,9.0,84,0.00,CLR,,0.00,100.0,WeatherDisplay:10.37,2013-08-19 13:16:00,
2013-08-19 08:21:00,67.7,62.7,29.99,SSE,159,4.7,6.0,84,0.00,CLR,,0.00,102.0,WeatherDisplay:10.37,2013-08-19 13:21:00,
2013-08-19 08:26:00,67.9,62.5,29.99,SSE,168,3.9,6.0,83,0.00,CLR,,0.00,90.0,WeatherDisplay:10.37,2013-08-19 13:26:00,
2013-08-19 08:31:00,68.0,62.6,29.99,SSW,200,3.9,6.0,83,0.00,CLR,,0.00,86.0,WeatherDisplay:10.37,2013-08-19 13:31:00,
2013-08-19 08:36:00,68.1,62.7,29.99,SSW,211,3.3,6.0,83,0.00,CLR,,0.00,86.0,WeatherDisplay:10.37,2013-08-19 13:36:00,
2013-08-19 08:41:00,68.2,62.8,29.99,SSE,163,4.6,7.0,83,0.00,CLR,,0.00,86.0,WeatherDisplay:10.37,2013-08-19 13:41:00,
2013-08-19 08:46:00,68.3,62.9,29.99,SE,145,5.5,7.0,83,0.00,CLR,,0.00,88.0,WeatherDisplay:10.37,2013-08-19 13:46:00,
2013-08-19 08:51:00,68.4,63.0,29.99,SSW,196,6.2,11.5,83,0.00,CLR,,0.00,95.0,WeatherDisplay:10.37,2013-08-19 13:51:00,
2013-08-19 08:56:00,68.5,63.1,29.99,SSW,202,3.7,5.0,83,0.00,CLR,,0.00,165.0,WeatherDisplay:10.37,2013-08-19 13:56:00,
2013-08-19 09:01:00,69.1,63.4,29.99,SSE,168,5.0,7.0,82,0.00,CLR,,0.00,341.0,WeatherDisplay:10.37,2013-08-19 14:01:00,
2013-08-19 09:06:00,69.6,63.9,29.99,SSE,163,5.6,9.2,82,0.00,CLR,,0.00,357.0,WeatherDisplay:10.37,2013-08-19 14:06:00,
2013-08-19 09:11:00,70.3,63.8,29.99,SW,219,5.7,9.2,80,0.00,CLR,,0.00,388.0,WeatherDisplay:10.37,2013-08-19 14:11:00,
2013-08-19 09:16:00,71.0,64.2,29.99,South,169,5.7,9.2,79,0.00,CLR,,0.00,415.0,WeatherDisplay:10.37,2013-08-19 14:16:00,
2013-08-19 09:21:00,71.5,64.3,29.99,SSE,168,5.9,10.4,78,0.00,CLR,,0.00,436.0,WeatherDisplay:10.37,2013-08-19 14:21:00,
2013-08-19 09:26:00,72.2,64.6,29.99,ESE,121,4.9,8.1,77,0.00,CLR,,0.00,450.0,WeatherDisplay:10.37,2013-08-19 14:26:00,
2013-08-19 09:31:00,72.8,64.8,29.99,SSE,160,6.4,11.0,76,0.00,CLR,,0.00,462.0,WeatherDisplay:10.37,2013-08-19 14:31:00,
2013-08-19 09:36:00,73.0,65.0,29.99,SSE,159,4.7,7.0,76,0.00,CLR,,0.00,478.0,WeatherDisplay:10.37,2013-08-19 14:36:00,
2013-08-19 09:41:00,73.7,65.3,29.99,South,181,3.2,5.0,75,0.00,CLR,,0.00,503.0,WeatherDisplay:10.37,2013-08-19 14:41:00,
2013-08-19 09:46:00,74.3,65.5,29.99,South,170,4.5,9.2,74,0.00,CLR,,0.00,557.0,WeatherDisplay:10.37,2013-08-19 14:46:00,
2013-08-19 09:51:00,74.6,65.8,29.99,SSE,163,6.8,12.0,74,0.00,CLR,,0.00,564.0,WeatherDisplay:10.37,2013-08-19 14:51:00,
2013-08-19 09:56:00,74.8,65.6,29.99,South,181,2.8,6.0,73,0.00,CLR,,0.00,561.0,WeatherDisplay:10.37,2013-08-19 14:56:00,
2013-08-19 10:01:00,75.1,65.5,29.99,WSW,248,5.9,9.2,72,0.00,CLR,,0.00,220.0,WeatherDisplay:10.37,2013-08-19 15:01:00,
2013-08-19 10:06:00,74.4,65.2,29.99,West,269,2.4,6.0,73,0.00,CLR,,0.00,172.0,WeatherDisplay:10.37,2013-08-19 15:06:00,
2013-08-19 10:11:00,74.2,65.4,29.99,South,184,4.5,8.0,74,0.00,CLR,,0.00,580.0,WeatherDisplay:10.37,2013-08-19 15:11:00,
2013-08-19 10:16:00,75.3,66.0,29.99,SW,230,4.2,8.0,73,0.00,CLR,,0.00,594.0,WeatherDisplay:10.37,2013-08-19 15:16:00,
2013-08-19 10:21:00,76.1,66.4,29.99,South,169,2.3,5.8,72,0.00,CLR,,0.00,601.0,WeatherDisplay:10.37,2013-08-19 15:21:00,
2013-08-19 10:26:00,76.2,66.1,29.99,WSW,244,4.5,8.1,71,0.00,CLR,,0.00,223.0,WeatherDisplay:10.37,2013-08-19 15:26:00,
2013-08-19 10:31:00,75.7,66.0,29.99,SE,133,3.6,7.0,72,0.00,CLR,,0.00,619.0,WeatherDisplay:10.37,2013-08-19 15:31:00,
2013-08-19 10:36:00,76.3,66.2,29.99,South,187,2.1,4.0,71,0.00,CLR,,0.00,612.0,WeatherDisplay:10.37,2013-08-19 15:36:00,
2013-08-19 10:41:00,76.6,66.5,29.99,WSW,240,1.2,4.6,71,0.00,CLR,,0.00,598.0,WeatherDisplay:10.37,2013-08-19 15:41:00,
2013-08-19 10:46:00,77.5,66.5,29.99,WSW,257,2.5,4.0,69,0.00,CLR,,0.00,592.0,WeatherDisplay:10.37,2013-08-19 15:46:00,
2013-08-19 10:51:00,76.9,66.4,29.99,SE,143,4.4,6.0,70,0.00,CLR,,0.00,605.0,WeatherDisplay:10.37,2013-08-19 15:51:00,
2013-08-19 10:56:00,77.0,66.5,29.99,SSW,206,2.8,5.0,70,0.00,CLR,,0.00,635.0,WeatherDisplay:10.37,2013-08-19 15:56:00,
2013-08-19 11:01:00,77.8,66.8,30.00,West,265,3.8,5.0,69,0.00,CLR,,0.00,664.0,WeatherDisplay:10.37,2013-08-19 16:01:00,
2013-08-19 11:06:00,77.9,66.9,30.00,WSW,238,2.4,4.0,69,0.00,CLR,,0.00,503.0,WeatherDisplay:10.37,2013-08-19 16:06:00,
2013-08-19 11:11:00,77.7,67.1,30.00,SSW,194,2.5,7.0,70,0.00,CLR,,0.00,647.0,WeatherDisplay:10.37,2013-08-19 16:11:00,
2013-08-19 11:16:00,78.6,67.6,30.00,South,189,1.9,4.0,69,0.00,CLR,,0.00,663.0,WeatherDisplay:10.37,2013-08-19 16:16:00,
2013-08-19 11:21:00,78.5,67.1,30.00,WSW,239,4.3,6.9,68,0.00,CLR,,0.00,534.0,WeatherDisplay:10.37,2013-08-19 16:21:00,
2013-08-19 11:26:00,78.8,67.3,30.00,South,179,3.2,5.0,68,0.00,CLR,,0.00,661.0,WeatherDisplay:10.37,2013-08-19 16:26:00,
2013-08-19 11:31:00,79.0,67.1,30.00,South,173,4.9,8.1,67,0.00,CLR,,0.00,668.0,WeatherDisplay:10.37,2013-08-19 16:31:00,
2013-08-19 11:36:00,79.0,67.1,30.00,SSE,157,4.5,6.0,67,0.00,CLR,,0.00,668.0,WeatherDisplay:10.37,2013-08-19 16:36:00,
2013-08-19 11:41:00,79.5,68.0,30.00,SW,236,2.5,5.0,68,0.00,CLR,,0.00,677.0,WeatherDisplay:10.37,2013-08-19 16:41:00,
2013-08-19 11:46:00,79.8,67.9,29.99,South,183,4.0,6.0,67,0.00,CLR,,0.00,684.0,WeatherDisplay:10.37,2013-08-19 16:46:00,
2013-08-19 11:51:00,79.4,67.5,29.99,South,186,2.7,4.0,67,0.00,CLR,,0.00,691.0,WeatherDisplay:10.37,2013-08-19 16:51:00,
2013-08-19 11:56:00,80.0,68.1,29.99,South,185,1.8,5.8,67,0.00,CLR,,0.00,700.0,WeatherDisplay:10.37,2013-08-19 16:56:00,
2013-08-19 12:01:00,79.9,68.0,29.99,SSW,198,2.6,5.0,67,0.00,CLR,,0.00,707.0,WeatherDisplay:10.37,2013-08-19 17:01:00,
2013-08-19 12:06:00,80.0,68.5,29.99,South,174,3.8,7.0,68,0.00,CLR,,0.00,715.0,WeatherDisplay:10.37,2013-08-19 17:06:00,
2013-08-19 12:11:00,79.9,68.4,29.99,South,190,3.6,6.9,68,0.00,CLR,,0.00,719.0,WeatherDisplay:10.37,2013-08-19 17:11:00,
2013-08-19 12:16:00,80.0,68.1,29.99,South,177,3.2,5.0,67,0.00,CLR,,0.00,726.0,WeatherDisplay:10.37,2013-08-19 17:16:00,
2013-08-19 12:21:00,80.6,69.1,29.99,South,186,2.6,4.0,68,0.00,CLR,,0.00,729.0,WeatherDisplay:10.37,2013-08-19 17:21:00,
2013-08-19 12:26:00,81.0,68.6,29.99,SSE,156,3.2,6.9,66,0.00,CLR,,0.00,731.0,WeatherDisplay:10.37,2013-08-19 17:26:00,
2013-08-19 12:31:00,81.0,68.6,29.99,South,174,2.9,6.9,66,0.00,CLR,,0.00,735.0,WeatherDisplay:10.37,2013-08-19 17:31:00,
2013-08-19 12:36:00,81.5,68.6,29.98,South,182,5.1,8.0,65,0.00,CLR,,0.00,735.0,WeatherDisplay:10.37,2013-08-19 17:36:00,
2013-08-19 12:41:00,81.5,68.6,29.98,SW,222,4.7,8.1,65,0.00,CLR,,0.00,744.0,WeatherDisplay:10.37,2013-08-19 17:41:00,
2013-08-19 12:46:00,81.7,68.8,29.98,SSE,164,2.4,4.0,65,0.00,CLR,,0.00,742.0,WeatherDisplay:10.37,2013-08-19 17:46:00,
2013-08-19 12:51:00,82.4,69.4,29.98,WSW,249,5.2,8.1,65,0.00,CLR,,0.00,749.0,WeatherDisplay:10.37,2013-08-19 17:51:00,
2013-08-19 12:56:00,82.8,69.8,29.98,South,180,1.4,3.5,65,0.00,CLR,,0.00,756.0,WeatherDisplay:10.37,2013-08-19 17:56:00,
2013-08-19 13:01:00,83.0,69.6,29.98,South,171,3.0,5.0,64,0.00,CLR,,0.00,758.0,WeatherDisplay:10.37,2013-08-19 18:01:00,
2013-08-19 13:06:00,83.6,70.1,29.98,SSE,150,3.6,6.9,64,0.00,CLR,,0.00,756.0,WeatherDisplay:10.37,2013-08-19 18:06:00,
2013-08-19 13:11:00,83.6,69.7,29.98,South,179,4.2,6.0,63,0.00,CLR,,0.00,759.0,WeatherDisplay:10.37,2013-08-19 18:11:00,
2013-08-19 13:16:00,83.9,70.0,29.98,South,178,5.2,7.0,63,0.00,CLR,,0.00,784.0,WeatherDisplay:10.37,2013-08-19 18:16:00,
2013-08-19 13:21:00,83.7,70.2,29.97,South,172,2.8,4.0,64,0.00,CLR,,0.00,786.0,WeatherDisplay:10.37,2013-08-19 18:21:00,
2013-08-19 13:26:00,84.6,70.6,29.98,SW,222,3.4,6.0,63,0.00,CLR,,0.00,241.0,WeatherDisplay:10.37,2013-08-19 18:26:00,
2013-08-19 13:31:00,84.7,70.2,29.97,SSW,194,1.3,3.5,62,0.00,CLR,,0.00,796.0,WeatherDisplay:10.37,2013-08-19 18:31:00,
2013-08-19 13:36:00,85.4,70.9,29.97,South,169,4.3,6.0,62,0.00,CLR,,0.00,840.0,WeatherDisplay:10.37,2013-08-19 18:36:00,
2013-08-19 13:41:00,85.0,71.0,29.97,SSE,163,3.4,8.0,63,0.00,CLR,,0.00,867.0,WeatherDisplay:10.37,2013-08-19 18:41:00,
2013-08-19 13:46:00,84.5,70.5,29.97,SSW,198,1.9,4.0,63,0.00,CLR,,0.00,810.0,WeatherDisplay:10.37,2013-08-19 18:46:00,
2013-08-19 13:51:00,84.7,71.2,29.97,South,177,3.8,6.0,64,0.00,CLR,,0.00,812.0,WeatherDisplay:10.37,2013-08-19 18:51:00,
2013-08-19 13:56:00,85.3,70.3,29.97,South,171,3.1,7.0,61,0.00,CLR,,0.00,780.0,WeatherDisplay:10.37,2013-08-19 18:56:00,
2013-08-19 14:01:00,85.6,70.6,29.97,South,186,4.8,9.0,61,0.00,CLR,,0.00,791.0,WeatherDisplay:10.37,2013-08-19 19:01:00,
2013-08-19 14:06:00,85.2,70.7,29.97,South,180,3.4,6.0,62,0.00,FEW,,0.00,780.0,WeatherDisplay:10.37,2013-08-19 19:06:00,
2013-08-19 14:11:00,86.5,70.5,29.97,SSE,147,4.9,8.1,59,0.00,FEW,,0.00,823.0,WeatherDisplay:10.37,2013-08-19 19:11:00,
2013-08-19 14:16:00,86.3,70.3,29.97,SSW,211,3.3,5.0,59,0.00,FEW,,0.00,802.0,WeatherDisplay:10.37,2013-08-19 19:16:00,
2013-08-19 14:21:00,86.1,70.6,29.97,South,175,4.8,8.1,60,0.00,FEW,,0.00,793.0,WeatherDisplay:10.37,2013-08-19 19:21:00,
2013-08-19 14:26:00,86.1,71.1,29.96,South,190,4.6,7.0,61,0.00,FEW,,0.00,823.0,WeatherDisplay:10.37,2013-08-19 19:26:00,
2013-08-19 14:31:00,86.0,70.5,29.96,South,185,4.5,8.1,60,0.00,FEW,,0.00,798.0,WeatherDisplay:10.37,2013-08-19 19:31:00,
2013-08-19 14:36:00,86.4,70.4,29.97,South,174,2.3,10.0,59,0.00,FEW,,0.00,689.0,WeatherDisplay:10.37,2013-08-19 19:36:00,
2013-08-19 14:41:00,85.9,70.4,29.96,South,184,3.6,5.8,60,0.00,FEW,,0.00,230.0,WeatherDisplay:10.37,2013-08-19 19:41:00,
2013-08-19 14:46:00,86.8,70.2,29.96,SE,142,6.2,11.5,58,0.00,FEW,,0.00,817.0,WeatherDisplay:10.37,2013-08-19 19:46:00,
2013-08-19 14:51:00,86.4,69.9,29.96,South,177,3.3,6.9,58,0.00,FEW,,0.00,817.0,WeatherDisplay:10.37,2013-08-19 19:51:00,
2013-08-19 14:56:00,87.5,70.4,29.96,South,183,1.2,3.5,57,0.00,FEW,,0.00,763.0,WeatherDisplay:10.37,2013-08-19 19:56:00,
2013-08-19 15:01:00,87.0,70.9,29.96,South,174,3.6,5.0,59,0.00,FEW,,0.00,283.0,WeatherDisplay:10.37,2013-08-19 20:01:00,
2013-08-19 15:06:00,86.6,71.1,29.96,SSE,159,3.3,5.8,60,0.00,BKN,,0.00,758.0,WeatherDisplay:10.37,2013-08-19 20:06:00,
2013-08-19 15:11:00,86.8,71.2,29.96,SSW,198,3.2,6.0,60,0.00,BKN,,0.00,269.0,WeatherDisplay:10.37,2013-08-19 20:11:00,
2013-08-19 15:16:00,87.0,70.9,29.96,South,190,4.1,9.0,59,0.00,BKN,,0.00,234.0,WeatherDisplay:10.37,2013-08-19 20:16:00,
2013-08-19 15:21:00,87.0,71.4,29.96,SSE,160,3.6,9.0,60,0.00,BKN,,0.00,779.0,WeatherDisplay:10.37,2013-08-19 20:21:00,
2013-08-19 15:26:00,87.3,71.2,29.96,SE,137,3.5,6.0,59,0.00,BKN,,0.00,747.0,WeatherDisplay:10.37,2013-08-19 20:26:00,
2013-08-19 15:31:00,87.2,71.1,29.96,SW,221,3.7,9.2,59,0.00,BKN,,0.00,278.0,WeatherDisplay:10.37,2013-08-19 20:31:00,
2013-08-19 15:36:00,87.0,70.9,29.95,South,184,4.8,8.0,59,0.00,BKN,,0.00,281.0,WeatherDisplay:10.37,2013-08-19 20:36:00,
2013-08-19 15:41:00,86.8,70.8,29.95,SSE,148,5.0,6.0,59,0.00,BKN,,0.00,805.0,WeatherDisplay:10.37,2013-08-19 20:41:00,
2013-08-19 15:46:00,87.4,70.8,29.95,South,170,2.8,7.0,58,0.00,BKN,,0.00,285.0,WeatherDisplay:10.37,2013-08-19 20:46:00,
2013-08-19 15:51:00,87.1,71.0,29.95,SW,221,4.5,6.0,59,0.00,BKN,,0.00,339.0,WeatherDisplay:10.37,2013-08-19 20:51:00,
2013-08-19 15:56:00,86.6,70.6,29.95,SSE,155,5.1,8.0,59,0.00,BKN,,0.00,756.0,WeatherDisplay:10.37,2013-08-19 20:56:00,
2013-08-19 16:01:00,86.9,71.3,29.95,South,180,2.7,5.0,60,0.00,BKN,,0.00,543.0,WeatherDisplay:10.37,2013-08-19 21:01:00,
2013-08-19 16:06:00,87.6,71.5,29.95,South,190,5.4,9.2,59,0.00,SCT,,0.00,638.0,WeatherDisplay:10.37,2013-08-19 21:06:00,
2013-08-19 16:11:00,87.1,71.5,29.95,SE,144,4.3,6.0,60,0.00,SCT,,0.00,285.0,WeatherDisplay:10.37,2013-08-19 21:11:00,
2013-08-19 16:16:00,87.3,71.2,29.94,SSE,166,4.8,8.1,59,0.00,SCT,,0.00,575.0,WeatherDisplay:10.37,2013-08-19 21:16:00,
2013-08-19 16:21:00,87.6,71.5,29.94,SSW,202,1.7,4.0,59,0.00,SCT,,0.00,554.0,WeatherDisplay:10.37,2013-08-19 21:21:00,
2013-08-19 16:26:00,87.4,70.8,29.94,SSE,163,4.6,7.0,58,0.00,SCT,,0.00,666.0,WeatherDisplay:10.37,2013-08-19 21:26:00,
2013-08-19 16:31:00,87.0,70.9,29.94,SW,225,5.0,7.0,59,0.00,SCT,,0.00,359.0,WeatherDisplay:10.37,2013-08-19 21:31:00,
2013-08-19 16:36:00,87.1,71.5,29.94,South,171,3.7,6.0,60,0.00,SCT,,0.00,622.0,WeatherDisplay:10.37,2013-08-19 21:36:00,
2013-08-19 16:41:00,87.0,71.9,29.94,South,188,3.9,7.0,61,0.00,SCT,,0.00,524.0,WeatherDisplay:10.37,2013-08-19 21:41:00,
2013-08-19 16:46:00,87.7,71.6,29.94,South,181,2.7,6.9,59,0.00,SCT,,0.00,613.0,WeatherDisplay:10.37,2013-08-19 21:46:00,
2013-08-19 16:51:00,88.3,71.6,29.94,South,169,2.9,8.0,58,0.00,SCT,,0.00,267.0,WeatherDisplay:10.37,2013-08-19 21:51:00,
2013-08-19 16:56:00,87.8,71.2,29.94,WSW,253,4.2,7.0,58,0.00,SCT,,0.00,566.0,WeatherDisplay:10.37,2013-08-19 21:56:00,
2013-08-19 17:01:00,88.0,71.9,29.94,SE,146,2.0,6.9,59,0.00,SCT,,0.00,534.0,WeatherDisplay:10.37,2013-08-19 22:01:00,
2013-08-19 17:06:00,87.7,71.6,29.94,South,188,2.7,5.8,59,0.00,SCT,,0.00,457.0,WeatherDisplay:10.37,2013-08-19 22:06:00,
2013-08-19 17:11:00,87.3,71.2,29.94,SSE,155,3.5,7.0,59,0.00,SCT,,0.00,171.0,WeatherDisplay:10.37,2013-08-19 22:11:00,
2013-08-19 17:16:00,86.3,71.3,29.94,South,179,2.6,5.8,61,0.00,SCT,,0.00,165.0,WeatherDisplay:10.37,2013-08-19 22:16:00,
2013-08-19 17:21:00,86.2,71.6,29.94,South,178,2.9,5.8,62,0.00,SCT,,0.00,434.0,WeatherDisplay:10.37,2013-08-19 22:21:00,
2013-08-19 17:26:00,87.3,71.7,29.93,West,264,3.5,6.0,60,0.00,SCT,,0.00,462.0,WeatherDisplay:10.37,2013-08-19 22:26:00,
2013-08-19 17:31:00,87.1,71.5,29.93,SW,219,4.8,9.2,60,0.00,SCT,,0.00,432.0,WeatherDisplay:10.37,2013-08-19 22:31:00,
2013-08-19 17:36:00,86.5,71.5,29.93,SSE,159,4.5,7.0,61,0.00,SCT,,0.00,352.0,WeatherDisplay:10.37,2013-08-19 22:36:00,
2013-08-19 17:41:00,86.6,72.0,29.93,SSW,196,2.0,5.0,62,0.00,SCT,,0.00,374.0,WeatherDisplay:10.37,2013-08-19 22:41:00,
2013-08-19 17:46:00,86.7,72.1,29.93,South,177,2.4,6.9,62,0.00,SCT,,0.00,352.0,WeatherDisplay:10.37,2013-08-19 22:46:00,
2013-08-19 17:51:00,87.0,71.4,29.93,SE,125,5.6,9.2,60,0.00,SCT,,0.00,327.0,WeatherDisplay:10.37,2013-08-19 22:51:00,
2013-08-19 17:56:00,86.4,71.8,29.93,SW,215,3.4,5.0,62,0.00,SCT,,0.00,308.0,WeatherDisplay:10.37,2013-08-19 22:56:00,
2013-08-19 18:01:00,86.7,72.1,29.93,SSE,168,2.1,4.0,62,0.00,SCT,,0.00,306.0,WeatherDisplay:10.37,2013-08-19 23:01:00,
2013-08-19 18:06:00,86.8,72.2,29.93,SSW,194,4.4,8.0,62,0.00,SCT,,0.00,309.0,WeatherDisplay:10.37,2013-08-19 23:06:00,
2013-08-19 18:11:00,85.8,71.7,29.93,SSW,210,4.3,7.0,63,0.00,SCT,,0.00,265.0,WeatherDisplay:10.37,2013-08-19 23:11:00,
2013-08-19 18:16:00,85.1,71.5,29.93,SSW,196,3.2,5.0,64,0.00,SCT,,0.00,265.0,WeatherDisplay:10.37,2013-08-19 23:16:00,
2013-08-19 18:21:00,84.7,71.2,29.93,ESE,113,4.1,6.9,64,0.00,SCT,,0.00,169.0,WeatherDisplay:10.37,2013-08-19 23:21:00,
2013-08-19 18:26:00,84.6,71.5,29.93,South,186,2.4,4.0,65,0.00,SCT,,0.00,237.0,WeatherDisplay:10.37,2013-08-19 23:26:00,
2013-08-19 18:31:00,84.7,72.1,29.93,South,181,3.8,6.0,66,0.00,SCT,,0.00,225.0,WeatherDisplay:10.37,2013-08-19 23:31:00,
2013-08-19 18:36:00,84.7,72.1,29.93,South,178,3.0,5.0,66,0.00,SCT,,0.00,220.0,WeatherDisplay:10.37,2013-08-19 23:36:00,
2013-08-19 18:41:00,84.6,72.4,29.93,South,188,1.5,3.5,67,0.00,SCT,,0.00,186.0,WeatherDisplay:10.37,2013-08-19 23:41:00,
2013-08-19 18:46:00,84.4,72.2,29.93,SSE,153,1.0,3.0,67,0.00,SCT,,0.00,137.0,WeatherDisplay:10.37,2013-08-19 23:46:00,
2013-08-19 18:51:00,84.2,72.0,29.93,SE,146,2.4,4.6,67,0.00,SCT,,0.00,128.0,WeatherDisplay:10.37,2013-08-19 23:51:00,
2013-08-19 18:56:00,83.9,72.2,29.93,SSE,150,2.8,5.0,68,0.00,SCT,,0.00,97.0,WeatherDisplay:10.37,2013-08-19 23:56:00,
2013-08-19 19:01:00,83.0,72.2,29.93,SW,228,1.6,3.5,70,0.00,SCT,,0.00,86.0,WeatherDisplay:10.37,2013-08-20 00:01:00,
2013-08-19 19:06:00,82.8,72.0,29.93,South,184,0.9,3.5,70,0.00,CLR,,0.00,97.0,WeatherDisplay:10.37,2013-08-20 00:06:00,
2013-08-19 19:11:00,82.6,72.2,29.93,South,187,3.0,5.0,71,0.00,CLR,,0.00,95.0,WeatherDisplay:10.37,2013-08-20 00:11:00,
2013-08-19 19:16:00,82.2,72.3,29.93,SSW,194,0.9,2.3,72,0.00,CLR,,0.00,90.0,WeatherDisplay:10.37,2013-08-20 00:16:00,
2013-08-19 19:21:00,82.3,72.4,29.93,South,186,1.8,4.0,72,0.00,CLR,,0.00,105.0,WeatherDisplay:10.37,2013-08-20 00:21:00,
2013-08-19 19:26:00,82.1,72.2,29.93,SSE,168,1.3,3.5,72,0.00,CLR,,0.00,95.0,WeatherDisplay:10.37,2013-08-20 00:26:00,
2013-08-19 19:31:00,82.0,72.1,29.93,SSW,211,2.5,6.0,72,0.00,CLR,,0.00,91.0,WeatherDisplay:10.37,2013-08-20 00:31:00,
2013-08-19 19:36:00,82.0,72.1,29.93,South,178,1.5,3.5,72,0.00,CLR,,0.00,81.0,WeatherDisplay:10.37,2013-08-20 00:36:00,
2013-08-19 19:41:00,81.7,72.2,29.93,SSE,155,2.3,4.0,73,0.00,CLR,,0.00,67.0,WeatherDisplay:10.37,2013-08-20 00:41:00,
2013-08-19 19:46:00,81.3,71.8,29.93,South,186,2.0,5.0,73,0.00,CLR,,0.00,53.0,WeatherDisplay:10.37,2013-08-20 00:46:00,
2013-08-19 19:51:00,81.1,72.0,29.93,South,180,2.3,5.0,74,0.00,CLR,,0.00,44.0,WeatherDisplay:10.37,2013-08-20 00:51:00,
2013-08-19 19:56:00,80.8,72.1,29.93,SSE,164,1.5,5.0,75,0.00,CLR,,0.00,35.0,WeatherDisplay:10.37,2013-08-20 00:56:00,
2013-08-19 20:01:00,80.5,71.8,29.93,South,183,2.7,5.0,75,0.00,CLR,,0.00,25.0,WeatherDisplay:10.37,2013-08-20 01:01:00,
2013-08-19 20:06:00,80.2,71.9,29.93,South,182,3.1,5.0,76,0.00,CLR,,0.00,19.0,WeatherDisplay:10.37,2013-08-20 01:06:00,
2013-08-19 20:11:00,80.0,71.8,29.93,East,90,2.2,5.8,76,0.00,CLR,,0.00,12.0,WeatherDisplay:10.37,2013-08-20 01:11:00,
2013-08-19 20:16:00,79.8,71.6,29.93,South,178,3.4,8.1,76,0.00,CLR,,0.00,9.0,WeatherDisplay:10.37,2013-08-20 01:16:00,
2013-08-19 20:21:00,79.6,71.8,29.93,SSE,147,1.6,3.5,77,0.00,CLR,,0.00,5.0,WeatherDisplay:10.37,2013-08-20 01:21:00,
2013-08-19 20:26:00,79.5,71.7,29.93,South,175,2.6,5.0,77,0.00,CLR,,0.00,0.0,WeatherDisplay:10.37,2013-08-20 01:26:00,
2013-08-19 20:31:00,79.4,71.6,29.93,SSE,165,2.6,3.5,77,0.00,CLR,,0.00,0.0,WeatherDisplay:10.37,2013-08-20 01:31:00,
2013-08-19 20:36:00,79.2,71.4,29.93,SSE,168,1.6,3.5,77,0.00,CLR,,0.00,0.0,WeatherDisplay:10.37,2013-08-20 01:36:00,
2013-08-19 20:41:00,79.0,71.2,29.93,SSE,168,1.0,3.5,77,0.00,CLR,,0.00,0.0,WeatherDisplay:10.37,2013-08-20 01:41:00,
2013-08-19 20:46:00,78.9,71.5,29.93,South,169,2.4,4.6,78,0.00,CLR,,0.00,0.0,WeatherDisplay:10.37,2013-08-20 01:46:00,
2013-08-19 20:51:00,78.7,71.3,29.93,SE,132,2.8,4.0,78,0.00,CLR,,0.00,0.0,WeatherDisplay:10.37,2013-08-20 01:51:00,
2013-08-19 20:56:00,78.4,71.0,29.93,South,175,2.1,4.0,78,0.00,CLR,,0.00,0.0,WeatherDisplay:10.37,2013-08-20 01:56:00,
2013-08-19 21:01:00,78.3,71.2,29.93,South,174,2.6,4.0,79,0.00,CLR,,0.00,0.0,WeatherDisplay:10.37,2013-08-20 02:01:00,
2013-08-19 21:06:00,78.0,71.0,29.93,South,182,2.0,5.0,79,0.00,CLR,,0.00,0.0,WeatherDisplay:10.37,2013-08-20 02:06:00,
2013-08-19 21:11:00,77.7,71.0,29.93,South,179,2.9,5.0,80,0.00,CLR,,0.00,0.0,WeatherDisplay:10.37,2013-08-20 02:11:00,
2013-08-19 21:16:00,77.6,70.9,29.93,South,180,1.7,3.5,80,0.00,CLR,,0.00,0.0,WeatherDisplay:10.37,2013-08-20 02:16:00,
2013-08-19 21:21:00,77.5,70.8,29.93,South,173,2.9,5.8,80,0.00,CLR,,0.00,0.0,WeatherDisplay:10.37,2013-08-20 02:21:00,
2013-08-19 21:26:00,77.4,70.7,29.94,SE,130,3.1,6.0,80,0.00,CLR,,0.00,0.0,WeatherDisplay:10.37,2013-08-20 02:26:00,
2013-08-19 21:31:00,77.4,70.7,29.94,South,182,2.4,4.6,80,0.00,CLR,,0.00,0.0,WeatherDisplay:10.37,2013-08-20 02:31:00,
2013-08-19 21:36:00,77.3,71.0,29.94,South,176,2.8,4.0,81,0.00,CLR,,0.00,0.0,WeatherDisplay:10.37,2013-08-20 02:36:00,
2013-08-19 21:41:00,77.4,70.7,29.94,SSW,197,2.9,4.0,80,0.00,CLR,,0.00,0.0,WeatherDisplay:10.37,2013-08-20 02:41:00,
2013-08-19 21:46:00,77.3,70.6,29.94,South,175,2.3,6.9,80,0.00,CLR,,0.00,0.0,WeatherDisplay:10.37,2013-08-20 02:46:00,
2013-08-19 21:51:00,77.3,70.6,29.94,South,170,3.4,7.0,80,0.00,CLR,,0.00,0.0,WeatherDisplay:10.37,2013-08-20 02:51:00,
2013-08-19 21:56:00,77.3,70.6,29.94,SSE,157,3.4,5.0,80,0.00,CLR,,0.00,0.0,WeatherDisplay:10.37,2013-08-20 02:56:00,
2013-08-19 22:01:00,77.3,70.6,29.94,SSE,159,1.9,4.6,80,0.00,CLR,,0.00,0.0,WeatherDisplay:10.37,2013-08-20 03:01:00,
2013-08-19 22:06:00,77.1,70.5,29.94,SSE,165,2.9,5.8,80,0.00,FEW,,0.00,0.0,WeatherDisplay:10.37,2013-08-20 03:06:00,
2013-08-19 22:11:00,77.0,70.7,29.94,SE,146,3.4,7.0,81,0.00,FEW,,0.00,0.0,WeatherDisplay:10.37,2013-08-20 03:11:00,
2013-08-19 22:16:00,76.9,70.6,29.94,SSE,165,3.0,5.0,81,0.00,FEW,,0.00,0.0,WeatherDisplay:10.37,2013-08-20 03:16:00,
2013-08-19 22:21:00,76.7,70.4,29.94,SSE,164,2.4,6.0,81,0.00,FEW,,0.00,0.0,WeatherDisplay:10.37,2013-08-20 03:21:00,
2013-08-19 22:26:00,76.8,70.5,29.93,SSE,155,1.5,4.0,81,0.00,FEW,,0.00,0.0,WeatherDisplay:10.37,2013-08-20 03:26:00,
2013-08-19 22:31:00,76.7,70.4,29.94,South,184,2.0,5.0,81,0.00,FEW,,0.00,0.0,WeatherDisplay:10.37,2013-08-20 03:31:00,
2013-08-19 22:36:00,76.6,70.3,29.94,South,180,2.2,4.6,81,0.00,FEW,,0.00,0.0,WeatherDisplay:10.37,2013-08-20 03:36:00,
2013-08-19 22:41:00,76.5,70.2,29.94,SE,143,0.6,2.3,81,0.00,FEW,,0.00,0.0,WeatherDisplay:10.37,2013-08-20 03:41:00,
2013-08-19 22:46:00,76.4,70.1,29.94,South,176,2.2,4.0,81,0.00,FEW,,0.00,0.0,WeatherDisplay:10.37,2013-08-20 03:46:00,
2013-08-19 22:51:00,76.3,70.4,29.94,SSW,192,1.3,4.6,82,0.00,FEW,,0.00,0.0,WeatherDisplay:10.37,2013-08-20 03:51:00,
2013-08-19 22:56:00,76.2,70.3,29.94,SSW,192,1.6,3.5,82,0.00,FEW,,0.00,0.0,WeatherDisplay:10.37,2013-08-20 03:56:00,
2013-08-19 23:01:00,76.0,70.1,29.93,South,173,0.2,2.0,82,0.00,FEW,,0.00,0.0,WeatherDisplay:10.37,2013-08-20 04:01:00,
2013-08-19 23:03:00,75.9,70.0,29.94,South,178,1.0,3.0,82,0.00,CLR,,0.00,0.0,WeatherDisplay:10.37,2013-08-20 04:03:00,
2013-08-19 23:04:00,75.9,70.0,29.94,SSW,192,1.6,5.0,82,0.00,CLR,,0.00,0.0,WeatherDisplay:10.37,2013-08-20 04:04:00,
2013-08-19 23:07:00,75.8,69.9,29.94,SSW,192,1.4,4.0,82,0.00,CLR,,0.00,0.0,WeatherDisplay:10.37,2013-08-20 04:07:00,
2013-08-19 23:12:00,75.6,70.1,29.93,SSE,160,1.1,4.0,83,0.00,CLR,,0.00,0.0,WeatherDisplay:10.37,2013-08-20 04:12:00,
2013-08-19 23:16:00,75.6,70.1,29.93,SSW,211,1.1,3.5,83,0.00,CLR,,0.00,0.0,WeatherDisplay:10.37,2013-08-20 04:16:00,
2013-08-19 23:21:00,75.5,70.0,29.93,SSE,165,0.9,2.3,83,0.00,CLR,,0.00,0.0,WeatherDisplay:10.37,2013-08-20 04:21:00,
2013-08-19 23:26:00,75.4,69.9,29.93,South,176,0.0,2.3,83,0.00,CLR,,0.00,0.0,WeatherDisplay:10.37,2013-08-20 04:26:00,
2013-08-19 23:31:00,75.4,69.9,29.93,SSE,162,1.3,5.8,83,0.00,CLR,,0.00,0.0,WeatherDisplay:10.37,2013-08-20 04:31:00,
2013-08-19 23:36:00,75.3,69.8,29.93,South,172,0.3,2.3,83,0.00,CLR,,0.00,0.0,WeatherDisplay:10.37,2013-08-20 04:36:00,
2013-08-19 23:41:00,75.2,69.7,29.93,South,175,0.4,1.2,83,0.00,CLR,,0.00,0.0,WeatherDisplay:10.37,2013-08-20 04:41:00,
2013-08-19 23:46:00,75.1,69.6,29.93,South,172,0.9,2.3,83,0.00,CLR,,0.00,0.0,WeatherDisplay:10.37,2013-08-20 04:46:00,
2013-08-19 23:51:00,75.0,69.8,29.93,SSW,195,0.3,1.2,84,0.00,CLR,,0.00,0.0,WeatherDisplay:10.37,2013-08-20 04:51:00,
2013-08-19 23:56:00,74.8,69.6,29.93,South,177,0.8,3.5,84,0.00,CLR,,0.00,0.0,WeatherDisplay:10.37,2013-08-20 04:56:00,